Time;durP1;ratioP1;P1;durP2;ratioP2;P2;SDS_P1;SDS_P2;PMS_P1;PMS_P2;Temp;Humidity;BMP_temperature;BMP_pressure;BME280_temperature;BME280_humidity;BME280_pressure;Samples;Min_cycle;Max_cycle;Signal;HPM_P1;HPM_P2
2023/09/26 00:00:20;;;;;;;7.55;5.82;;;12.70;88.90;;;;;;5052840;28;20056;-49
2023/09/26 00:02:51;;;;;;;6.75;5.78;;;12.80;88.90;;;;;;5057377;28;20027;-50
2023/09/26 00:05:23;;;;;;;6.88;5.50;;;12.80;88.90;;;;;;5055863;28;20051;-51
2023/09/26 00:07:49;;;;;;;7.55;6.50;;;12.80;89.00;;;;;;5041431;28;20079;-46
2023/09/26 00:10:16;;;;;;;8.10;5.75;;;12.70;89.10;;;;;;5038810;28;20032;-46
2023/09/26 00:12:44;;;;;;;7.03;6.07;;;12.70;89.20;;;;;;5072349;28;20028;-47
2023/09/26 00:15:11;;;;;;;7.43;6.38;;;12.60;89.40;;;;;;5071679;28;20108;-48
2023/09/26 00:17:37;;;;;;;9.63;6.00;;;12.60;89.50;;;;;;5070680;28;20039;-46
2023/09/26 00:20:27;;;;;;;7.05;5.80;;;12.60;89.50;;;;;;5053836;28;20028;-46
2023/09/26 00:22:55;;;;;;;14.32;6.30;;;12.60;89.60;;;;;;5070825;28;20346;-47
2023/09/26 00:25:24;;;;;;;7.90;5.85;;;12.50;89.80;;;;;;5055224;28;20057;-49
2023/09/26 00:27:56;;;;;;;9.10;6.53;;;12.50;89.90;;;;;;5037539;28;20032;-49
2023/09/26 00:30:27;;;;;;;10.75;6.80;;;12.50;90.00;;;;;;5053022;28;20033;-49
2023/09/26 00:32:54;;;;;;;6.85;6.15;;;12.60;90.10;;;;;;5052614;28;20438;-45
2023/09/26 00:35:21;;;;;;;7.43;6.00;;;12.60;90.10;;;;;;5065731;28;20406;-47
2023/09/26 00:37:52;;;;;;;8.75;6.40;;;12.60;90.00;;;;;;5053609;28;20104;-46
2023/09/26 00:40:22;;;;;;;11.38;6.10;;;12.60;90.00;;;;;;5035169;28;20045;-45
2023/09/26 00:42:49;;;;;;;8.07;6.40;;;12.60;89.90;;;;;;5049595;28;20048;-49
2023/09/26 00:45:16;;;;;;;6.75;5.70;;;12.60;89.90;;;;;;5054519;28;20027;-47
2023/09/26 00:47:44;;;;;;;9.13;6.10;;;12.60;89.90;;;;;;5072318;28;20029;-45
2023/09/26 00:50:14;;;;;;;7.68;6.05;;;12.50;90.00;;;;;;5049681;28;20343;-45
2023/09/26 00:52:49;;;;;;;8.55;6.00;;;12.50;90.00;;;;;;5052076;28;20095;-48
2023/09/26 00:55:20;;;;;;;9.73;5.70;;;12.50;90.20;;;;;;5050904;28;20039;-46
2023/09/26 00:57:49;;;;;;;7.85;6.38;;;12.60;90.20;;;;;;5055384;28;20036;-48
2023/09/26 01:00:28;;;;;;;9.05;6.57;;;12.50;90.20;;;;;;5064644;28;20107;-47
2023/09/26 01:02:56;;;;;;;10.65;6.85;;;12.50;90.30;;;;;;5058937;28;20036;-46
2023/09/26 01:05:23;;;;;;;10.30;7.40;;;12.60;90.30;;;;;;5054878;28;20104;-46
2023/09/26 01:07:51;;;;;;;16.52;8.13;;;12.60;90.20;;;;;;5018596;28;20033;-49
2023/09/26 01:10:19;;;;;;;10.30;6.80;;;12.60;90.20;;;;;;5045868;28;20442;-47
2023/09/26 01:12:45;;;;;;;8.85;7.32;;;12.60;90.10;;;;;;5051431;28;20075;-45
2023/09/26 01:15:12;;;;;;;11.65;8.63;;;12.50;90.10;;;;;;5055425;28;20052;-45
2023/09/26 01:17:39;;;;;;;8.75;7.85;;;12.50;90.10;;;;;;5066213;28;20389;-45
2023/09/26 01:20:15;;;;;;;10.25;9.07;;;12.50;90.10;;;;;;5038190;28;20021;-45
2023/09/26 01:22:50;;;;;;;10.05;8.82;;;12.60;90.20;;;;;;5055583;28;20067;-45
2023/09/26 01:25:17;;;;;;;11.05;9.45;;;12.50;90.10;;;;;;5033638;28;20032;-46
2023/09/26 01:27:45;;;;;;;15.45;8.90;;;12.50;90.10;;;;;;5055908;28;20036;-47
2023/09/26 01:30:23;;;;;;;11.40;9.48;;;12.60;90.10;;;;;;5055731;28;20035;-45
2023/09/26 01:32:52;;;;;;;10.50;9.48;;;12.50;90.00;;;;;;5038144;28;20025;-47
2023/09/26 01:35:21;;;;;;;10.65;8.63;;;12.60;90.10;;;;;;5064045;28;20037;-47
2023/09/26 01:37:50;;;;;;;10.35;9.30;;;12.50;90.00;;;;;;5055390;28;20041;-49
2023/09/26 01:40:22;;;;;;;10.20;9.20;;;12.50;90.00;;;;;;5069293;28;20056;-45
2023/09/26 01:42:48;;;;;;;11.30;9.40;;;12.50;90.00;;;;;;5058354;28;20037;-47
2023/09/26 01:45:15;;;;;;;10.77;9.63;;;12.50;90.00;;;;;;5038780;28;20116;-45
2023/09/26 01:47:50;;;;;;;11.35;8.93;;;12.50;90.00;;;;;;5075155;28;20040;-47
2023/09/26 01:50:20;;;;;;;11.35;8.65;;;12.50;89.90;;;;;;5057599;28;20036;-49
2023/09/26 01:52:47;;;;;;;10.23;9.15;;;12.50;89.90;;;;;;5044140;28;20065;-47
2023/09/26 01:55:22;;;;;;;9.73;8.73;;;12.40;89.90;;;;;;5066623;28;20702;-48
2023/09/26 01:57:49;;;;;;;11.52;9.35;;;12.50;90.00;;;;;;5073554;28;20109;-46
2023/09/26 02:00:17;;;;;;;10.50;9.05;;;12.50;89.90;;;;;;5037488;28;20116;-44
2023/09/26 02:02:50;;;;;;;10.82;9.05;;;12.40;89.90;;;;;;5034933;28;20485;-44
2023/09/26 02:05:29;;;;;;;9.05;8.15;;;12.40;89.90;;;;;;5055402;28;20047;-50
2023/09/26 02:07:57;;;;;;;12.10;10.52;;;12.40;90.00;;;;;;5054909;28;20017;-46
2023/09/26 02:10:23;;;;;;;10.55;9.10;;;12.40;90.00;;;;;;5066410;28;20036;-45
2023/09/26 02:12:56;;;;;;;9.50;8.50;;;12.40;90.00;;;;;;5056478;28;20392;-45
2023/09/26 02:15:24;;;;;;;9.70;8.80;;;12.40;90.00;;;;;;5074868;28;20032;-46
2023/09/26 02:17:51;;;;;;;9.98;8.88;;;12.40;90.00;;;;;;5066577;28;20021;-45
2023/09/26 02:20:19;;;;;;;11.20;9.15;;;12.40;90.10;;;;;;5054703;28;20028;-44
2023/09/26 02:22:50;;;;;;;9.80;8.73;;;12.40;90.00;;;;;;5037512;28;20037;-44
2023/09/26 02:25:19;;;;;;;12.02;8.63;;;12.40;90.10;;;;;;5052406;28;20582;-48
2023/09/26 02:27:48;;;;;;;10.07;9.07;;;12.30;90.10;;;;;;5036992;28;20040;-46
2023/09/26 02:30:25;;;;;;;9.93;8.95;;;12.30;90.10;;;;;;5036987;28;20650;-44
2023/09/26 02:32:54;;;;;;;17.98;9.80;;;12.30;90.10;;;;;;5054364;28;20025;-46
2023/09/26 02:35:22;;;;;;;9.90;8.90;;;12.30;90.10;;;;;;5057130;28;20044;-45
2023/09/26 02:37:49;;;;;;;11.93;9.20;;;12.20;90.20;;;;;;5071320;28;20140;-47
2023/09/26 02:40:14;;;;;;;11.38;9.43;;;12.20;90.30;;;;;;5054098;28;20057;-44
2023/09/26 02:42:50;;;;;;;11.10;9.70;;;12.30;90.40;;;;;;5054216;28;20025;-45
2023/09/26 02:45:17;;;;;;;10.65;9.57;;;12.30;90.50;;;;;;5053868;28;20044;-46
2023/09/26 02:47:45;;;;;;;10.50;9.40;;;12.30;90.60;;;;;;5057507;28;20759;-44
2023/09/26 02:50:13;;;;;;;10.35;8.93;;;12.30;90.60;;;;;;5073090;28;20036;-45
2023/09/26 02:52:43;;;;;;;12.20;10.23;;;12.30;90.60;;;;;;5070424;28;20031;-45
2023/09/26 02:55:12;;;;;;;12.52;10.25;;;12.30;90.60;;;;;;5054053;28;20458;-48
2023/09/26 02:57:39;;;;;;;11.77;10.55;;;12.30;90.60;;;;;;5054350;28;20037;-45
2023/09/26 03:00:16;;;;;;;11.55;10.18;;;12.30;90.60;;;;;;5062926;28;20039;-45
2023/09/26 03:02:45;;;;;;;10.95;9.80;;;12.30;90.60;;;;;;5057456;28;20037;-43
2023/09/26 03:05:13;;;;;;;11.02;9.25;;;12.30;90.60;;;;;;5057251;28;20029;-44
2023/09/26 03:07:42;;;;;;;11.38;10.23;;;12.30;90.70;;;;;;5055417;28;20357;-44
2023/09/26 03:10:09;;;;;;;11.13;10.02;;;12.20;90.60;;;;;;5073562;28;20388;-46
2023/09/26 03:12:36;;;;;;;12.38;10.45;;;12.20;90.60;;;;;;5057157;28;20039;-44
2023/09/26 03:15:06;;;;;;;12.13;9.20;;;12.20;90.60;;;;;;5053570;28;20044;-46
2023/09/26 03:17:34;;;;;;;12.45;10.02;;;12.20;90.60;;;;;;5053561;28;20519;-45
2023/09/26 03:20:04;;;;;;;12.45;11.18;;;12.20;90.70;;;;;;5073809;28;20417;-44
2023/09/26 03:22:31;;;;;;;10.68;9.23;;;12.20;90.70;;;;;;5073482;28;20049;-44
2023/09/26 03:24:57;;;;;;;11.20;10.02;;;12.10;90.70;;;;;;5058760;28;20553;-44
2023/09/26 03:27:25;;;;;;;10.77;9.73;;;12.10;90.60;;;;;;5035875;28;20040;-44
2023/09/26 03:29:51;;;;;;;10.90;9.43;;;12.10;90.60;;;;;;5054036;28;20028;-46
2023/09/26 03:32:19;;;;;;;14.68;10.23;;;12.00;90.50;;;;;;5054703;28;20040;-45
2023/09/26 03:34:45;;;;;;;12.23;10.95;;;12.00;90.60;;;;;;5073210;28;20036;-45
2023/09/26 03:37:11;;;;;;;13.40;11.25;;;12.00;90.60;;;;;;5072084;28;20039;-44
2023/09/26 03:39:40;;;;;;;11.95;10.77;;;11.90;90.70;;;;;;5066908;28;20029;-44
2023/09/26 03:42:09;;;;;;;12.73;11.18;;;11.90;90.80;;;;;;5051572;28;20028;-45
2023/09/26 03:44:36;;;;;;;14.93;12.73;;;11.90;90.90;;;;;;5052898;28;20025;-44
2023/09/26 03:47:02;;;;;;;12.35;10.88;;;11.90;90.90;;;;;;5052993;28;20025;-45
2023/09/26 03:49:30;;;;;;;12.20;10.95;;;11.90;91.00;;;;;;5064559;28;20032;-47
2023/09/26 03:51:58;;;;;;;13.02;11.73;;;11.90;91.00;;;;;;5069875;28;20392;-48
2023/09/26 03:54:29;;;;;;;12.95;11.63;;;11.90;91.10;;;;;;5069720;28;20029;-47
2023/09/26 03:56:57;;;;;;;13.18;11.88;;;11.90;91.10;;;;;;5055725;28;20032;-48
2023/09/26 03:59:24;;;;;;;13.35;11.95;;;11.90;91.00;;;;;;5072885;28;20489;-44
2023/09/26 04:01:49;;;;;;;13.55;11.82;;;11.90;91.10;;;;;;5067299;28;20067;-46
2023/09/26 04:04:16;;;;;;;13.23;11.93;;;11.90;91.10;;;;;;5050976;28;20060;-47
2023/09/26 04:06:44;;;;;;;13.07;11.77;;;11.90;91.00;;;;;;5058763;28;20330;-44
2023/09/26 04:09:15;;;;;;;13.40;12.10;;;11.80;91.00;;;;;;5072463;28;20024;-46
2023/09/26 04:11:41;;;;;;;13.88;12.48;;;11.80;91.10;;;;;;5066035;28;20033;-43
2023/09/26 04:14:07;;;;;;;14.50;13.00;;;11.80;91.10;;;;;;5052766;28;20039;-44
2023/09/26 04:16:34;;;;;;;14.68;12.90;;;11.80;91.20;;;;;;5055564;28;20481;-44
2023/09/26 04:19:03;;;;;;;18.98;13.80;;;11.80;91.10;;;;;;5072873;28;20438;-42
2023/09/26 04:21:30;;;;;;;15.20;13.70;;;11.80;91.10;;;;;;5054896;28;20339;-44
2023/09/26 04:23:59;;;;;;;17.15;12.43;;;11.70;91.00;;;;;;5058633;28;20039;-44
2023/09/26 04:26:25;;;;;;;14.85;12.82;;;11.70;91.00;;;;;;5072387;28;20103;-46
2023/09/26 04:28:51;;;;;;;14.57;13.20;;;11.60;91.10;;;;;;5063492;28;20041;-48
2023/09/26 04:31:18;;;;;;;14.68;13.18;;;11.60;91.10;;;;;;5035157;28;20040;-47
2023/09/26 04:33:48;;;;;;;14.32;12.82;;;11.50;91.00;;;;;;5056742;28;20388;-50
2023/09/26 04:36:14;;;;;;;14.32;12.82;;;11.60;91.20;;;;;;5058520;28;20033;-43
2023/09/26 04:38:42;;;;;;;16.17;14.52;;;11.50;91.30;;;;;;5055228;28;20043;-45
2023/09/26 04:41:10;;;;;;;15.43;13.88;;;11.50;91.30;;;;;;5041129;28;20068;-44
2023/09/26 04:43:36;;;;;;;20.33;15.48;;;11.60;91.40;;;;;;5034935;28;20033;-44
2023/09/26 04:46:11;;;;;;;15.35;13.85;;;11.60;91.40;;;;;;5034956;28;20106;-48
2023/09/26 04:48:39;;;;;;;14.95;13.55;;;11.50;91.40;;;;;;5030259;28;20068;-43
2023/09/26 04:51:08;;;;;;;15.88;14.38;;;11.50;91.30;;;;;;5019064;28;20030;-48
2023/09/26 04:53:37;;;;;;;14.73;13.32;;;11.50;91.40;;;;;;5036419;28;20040;-45
2023/09/26 04:56:07;;;;;;;15.02;13.63;;;11.50;91.40;;;;;;5022858;28;20128;-48
2023/09/26 04:58:33;;;;;;;16.90;15.25;;;11.40;91.30;;;;;;5018474;28;20029;-44
2023/09/26 05:01:13;;;;;;;15.13;13.55;;;11.40;91.20;;;;;;5043648;28;20033;-44
2023/09/26 05:03:41;;;;;;;14.82;13.32;;;11.40;91.30;;;;;;5038357;28;20042;-44
2023/09/26 05:06:09;;;;;;;16.55;14.38;;;11.40;91.30;;;;;;5037631;28;20045;-49
2023/09/26 05:08:37;;;;;;;15.85;14.15;;;11.40;91.30;;;;;;5018949;28;20041;-47
2023/09/26 05:11:04;;;;;;;14.93;13.35;;;11.30;91.30;;;;;;5019343;28;20084;-42
2023/09/26 05:13:30;;;;;;;17.55;15.82;;;11.30;91.30;;;;;;5050366;28;20512;-42
2023/09/26 05:15:56;;;;;;;19.42;16.30;;;11.30;91.40;;;;;;5038696;28;20033;-42
2023/09/26 05:18:23;;;;;;;17.83;16.05;;;11.30;91.50;;;;;;5034162;28;20037;-44
2023/09/26 05:20:51;;;;;;;18.23;16.30;;;11.20;91.50;;;;;;5036019;28;20029;-45
2023/09/26 05:23:18;;;;;;;17.77;15.32;;;11.20;91.60;;;;;;5018646;28;20029;-45
2023/09/26 05:25:45;;;;;;;16.88;15.07;;;11.10;91.70;;;;;;5029157;28;20072;-46
2023/09/26 05:28:11;;;;;;;17.90;16.13;;;11.20;91.80;;;;;;5035918;28;20088;-47
2023/09/26 05:30:40;;;;;;;16.45;14.75;;;11.10;91.80;;;;;;5018475;28;20030;-44
2023/09/26 05:33:06;;;;;;;19.65;17.67;;;11.20;91.80;;;;;;5029240;28;20162;-44
2023/09/26 05:35:33;;;;;;;17.05;15.35;;;11.10;91.80;;;;;;5053917;28;20131;-43
2023/09/26 05:38:03;;;;;;;17.73;15.52;;;11.10;91.80;;;;;;5055400;28;20060;-47
2023/09/26 05:40:28;;;;;;;19.60;17.58;;;11.20;91.90;;;;;;5064896;28;20040;-43
2023/09/26 05:43:02;;;;;;;21.77;17.98;;;11.20;92.00;;;;;;5063898;28;20416;-44
2023/09/26 05:45:29;;;;;;;22.90;19.40;;;11.30;92.20;;;;;;5067812;28;20457;-43
2023/09/26 05:47:56;;;;;;;20.60;18.48;;;11.40;92.30;;;;;;5075306;28;20032;-43
2023/09/26 05:50:25;;;;;;;18.88;17.08;;;11.40;92.40;;;;;;5075450;28;20042;-45
2023/09/26 05:52:52;;;;;;;20.00;17.87;;;11.50;92.50;;;;;;5058823;28;20336;-48
2023/09/26 05:55:19;;;;;;;21.65;19.55;;;11.60;92.60;;;;;;5064864;28;20130;-47
2023/09/26 05:57:48;;;;;;;21.50;19.42;;;11.70;92.60;;;;;;5054862;28;20032;-43
2023/09/26 06:00:16;;;;;;;21.60;19.33;;;11.80;92.60;;;;;;5054349;28;20347;-43
2023/09/26 06:02:44;;;;;;;24.15;21.92;;;11.90;92.70;;;;;;5054620;28;20024;-47
2023/09/26 06:05:13;;;;;;;20.23;18.38;;;11.90;92.70;;;;;;5067803;28;20039;-42
2023/09/26 06:07:39;;;;;;;21.40;19.35;;;12.00;92.70;;;;;;5075073;28;20035;-43
2023/09/26 06:10:06;;;;;;;22.60;20.35;;;12.10;92.70;;;;;;5074476;28;20108;-42
2023/09/26 06:12:34;;;;;;;22.20;19.90;;;12.20;92.70;;;;;;5075016;28;20035;-44
2023/09/26 06:15:05;;;;;;;22.20;20.00;;;12.30;92.70;;;;;;5056448;28;20033;-48
2023/09/26 06:17:34;;;;;;;21.48;19.40;;;12.30;92.60;;;;;;5068737;28;20025;-42
2023/09/26 06:20:02;;;;;;;21.23;19.33;;;12.40;92.50;;;;;;5054751;28;20051;-43
2023/09/26 06:22:39;;;;;;;22.48;20.27;;;12.40;92.40;;;;;;5037007;28;20048;-43
2023/09/26 06:25:10;;;;;;;23.00;20.70;;;12.40;92.40;;;;;;5064195;28;20031;-44
2023/09/26 06:27:39;;;;;;;21.45;19.25;;;12.50;92.30;;;;;;5059769;28;20470;-43
2023/09/26 06:30:06;;;;;;;22.15;20.15;;;12.50;92.30;;;;;;5051505;28;20485;-47
2023/09/26 06:32:34;;;;;;;22.27;20.17;;;12.50;92.30;;;;;;5072272;28;20537;-43
2023/09/26 06:35:00;;;;;;;22.50;20.30;;;12.60;92.30;;;;;;5037079;28;20526;-42
2023/09/26 06:37:28;;;;;;;22.70;20.60;;;12.60;92.30;;;;;;5054588;28;20025;-47
2023/09/26 06:40:00;;;;;;;21.35;19.27;;;12.70;92.20;;;;;;5063096;28;20037;-44
2023/09/26 06:42:27;;;;;;;21.95;19.75;;;12.70;92.20;;;;;;5057055;28;20033;-43
2023/09/26 06:44:57;;;;;;;21.13;19.15;;;12.80;92.10;;;;;;5054581;28;20021;-46
2023/09/26 06:47:26;;;;;;;22.17;19.95;;;12.90;92.20;;;;;;5055025;28;20120;-47
2023/09/26 06:49:54;;;;;;;23.42;21.02;;;12.90;92.10;;;;;;5020616;28;20561;-43
2023/09/26 06:52:22;;;;;;;21.73;19.60;;;13.00;91.90;;;;;;5044676;28;20060;-45
2023/09/26 06:54:47;;;;;;;21.38;19.10;;;13.10;91.90;;;;;;5063937;28;20453;-44
2023/09/26 06:57:17;;;;;;;21.75;19.60;;;13.10;91.80;;;;;;5074461;28;20063;-43
2023/09/26 06:59:50;;;;;;;22.13;19.85;;;13.20;91.70;;;;;;5074232;28;20108;-46
2023/09/26 07:02:19;;;;;;;22.05;19.95;;;13.20;91.60;;;;;;5061778;28;20120;-43
2023/09/26 07:04:52;;;;;;;;;;;13.30;91.50;;;;;;5054731;28;20071;-46
2023/09/26 07:07:18;;;;;;;18.52;16.73;;;13.40;91.50;;;;;;5053833;28;19917;-44
2023/09/26 07:09:46;;;;;;;21.75;19.48;;;13.50;91.50;;;;;;5055342;28;20025;-48
2023/09/26 07:12:17;;;;;;;23.48;20.05;;;13.60;91.50;;;;;;5052889;28;20109;-44
2023/09/26 07:14:43;;;;;;;20.35;18.15;;;13.80;91.30;;;;;;5053967;28;20029;-47
2023/09/26 07:17:13;;;;;;;20.10;17.73;;;13.90;91.20;;;;;;5053737;28;20122;-45
2023/09/26 07:19:40;;;;;;;19.77;17.58;;;14.00;91.00;;;;;;5059947;28;20031;-44
2023/09/26 07:22:16;;;;;;;18.70;16.95;;;14.10;90.60;;;;;;5073556;28;20058;-48
2023/09/26 07:24:50;;;;;;;18.98;16.65;;;14.20;90.40;;;;;;5058536;28;20158;-46
2023/09/26 07:27:17;;;;;;;16.38;14.77;;;14.30;90.10;;;;;;5056254;28;20036;-47
2023/09/26 07:29:47;;;;;;;15.52;13.95;;;14.40;90.10;;;;;;5055745;28;20102;-46
2023/09/26 07:32:15;;;;;;;17.63;15.93;;;14.60;90.10;;;;;;5051190;28;20029;-45
2023/09/26 07:34:41;;;;;;;16.98;15.57;;;14.90;90.10;;;;;;5035686;28;20037;-46
2023/09/26 07:37:07;;;;;;;15.43;13.95;;;15.20;89.70;;;;;;5046442;28;20047;-45
2023/09/26 07:39:34;;;;;;;18.25;16.40;;;15.40;89.20;;;;;;5053012;28;20025;-46
2023/09/26 07:42:00;;;;;;;16.17;14.68;;;15.70;88.20;;;;;;5059958;28;20035;-49
2023/09/26 07:44:32;;;;;;;12.57;11.18;;;15.70;86.80;;;;;;5072970;28;20021;-47
2023/09/26 07:47:00;;;;;;;13.77;12.48;;;15.90;87.00;;;;;;5070783;28;20025;-48
2023/09/26 07:49:31;;;;;;;12.48;11.25;;;15.90;86.30;;;;;;5072744;28;20033;-48
2023/09/26 07:51:58;;;;;;;14.65;13.25;;;15.90;86.40;;;;;;5068475;28;20035;-47
2023/09/26 07:54:25;;;;;;;13.05;11.85;;;16.00;85.80;;;;;;5072938;28;20667;-47
2023/09/26 07:56:53;;;;;;;11.07;9.98;;;16.00;86.10;;;;;;5072969;28;20044;-47
2023/09/26 07:59:22;;;;;;;11.95;10.13;;;16.10;86.30;;;;;;5072796;28;20027;-47
2023/09/26 08:01:54;;;;;;;12.27;11.10;;;16.10;86.40;;;;;;5038219;28;20139;-51
2023/09/26 08:04:21;;;;;;;12.55;11.27;;;16.20;85.90;;;;;;5052849;28;20021;-47
2023/09/26 08:06:48;;;;;;;10.68;9.68;;;16.20;85.40;;;;;;5058655;28;20469;-47
2023/09/26 08:09:17;;;;;;;11.52;10.32;;;16.30;85.40;;;;;;5052926;28;20029;-47
2023/09/26 08:11:56;;;;;;;11.52;10.27;;;16.40;85.40;;;;;;5070575;28;20413;-49
2023/09/26 08:14:24;;;;;;;12.02;10.77;;;16.50;84.90;;;;;;5070761;28;20027;-51
2023/09/26 08:16:51;;;;;;;9.80;8.70;;;16.70;84.50;;;;;;5052852;28;20343;-50
2023/09/26 08:19:19;;;;;;;10.82;9.38;;;16.90;84.90;;;;;;5069403;28;20032;-50
2023/09/26 08:21:48;;;;;;;9.93;8.70;;;17.00;83.90;;;;;;5072112;28;20028;-51
2023/09/26 08:24:15;;;;;;;8.73;7.78;;;17.10;83.10;;;;;;5072720;28;20028;-53
2023/09/26 08:26:43;;;;;;;9.85;7.68;;;17.40;83.20;;;;;;5072053;28;20112;-47
2023/09/26 08:29:10;;;;;;;8.65;7.75;;;17.50;82.80;;;;;;5063253;28;20032;-50
2023/09/26 08:31:37;;;;;;;10.23;7.70;;;17.80;80.50;;;;;;5052947;28;20025;-48
2023/09/26 08:34:03;;;;;;;9.35;7.43;;;18.20;80.50;;;;;;5052702;28;20064;-50
2023/09/26 08:36:32;;;;;;;10.02;7.60;;;18.40;79.30;;;;;;5056685;28;20065;-50
2023/09/26 08:39:00;;;;;;;9.43;7.07;;;18.60;78.50;;;;;;5072133;28;20052;-47
2023/09/26 08:41:29;;;;;;;9.63;6.53;;;18.80;78.70;;;;;;5054808;28;20390;-51
2023/09/26 08:43:56;;;;;;;10.13;6.28;;;18.80;77.70;;;;;;5039731;28;20045;-50
2023/09/26 08:46:25;;;;;;;10.07;6.28;;;18.80;77.90;;;;;;5032780;28;20030;-49
2023/09/26 08:48:57;;;;;;;7.93;5.50;;;18.90;76.40;;;;;;5050278;28;20053;-48
2023/09/26 08:51:25;;;;;;;5.80;5.18;;;19.00;76.40;;;;;;5037502;28;20478;-50
2023/09/26 08:53:52;;;;;;;5.45;4.70;;;19.10;76.50;;;;;;5032686;28;20048;-50
2023/09/26 08:56:23;;;;;;;7.00;5.15;;;19.30;77.50;;;;;;5039224;28;20044;-49
2023/09/26 08:58:53;;;;;;;9.10;5.47;;;19.30;76.00;;;;;;5033662;28;20068;-47
2023/09/26 09:01:21;;;;;;;6.03;4.45;;;19.30;75.10;;;;;;5029053;28;20077;-49
2023/09/26 09:03:49;;;;;;;8.80;4.40;;;19.30;75.60;;;;;;5051923;28;20095;-49
2023/09/26 09:06:16;;;;;;;6.80;4.70;;;19.30;74.70;;;;;;5052208;28;20017;-52
2023/09/26 09:08:41;;;;;;;7.40;4.32;;;19.30;73.40;;;;;;5052211;28;20359;-47
2023/09/26 09:11:08;;;;;;;4.95;3.83;;;19.40;73.10;;;;;;5052125;28;20059;-47
2023/09/26 09:13:42;;;;;;;6.10;4.05;;;19.60;72.50;;;;;;5047400;28;20033;-51
2023/09/26 09:16:26;;;;;;;7.57;4.30;;;19.70;71.70;;;;;;5035605;28;20044;-49
2023/09/26 09:18:58;;;;;;;5.63;4.10;;;19.90;70.40;;;;;;5052076;28;20051;-49
2023/09/26 09:21:30;;;;;;;4.80;3.08;;;20.20;70.50;;;;;;5039921;28;20026;-52
2023/09/26 09:23:58;;;;;;;5.80;3.58;;;20.40;70.90;;;;;;5032329;28;20477;-50
2023/09/26 09:26:34;;;;;;;5.15;3.72;;;20.60;68.50;;;;;;5017786;28;20029;-49
2023/09/26 09:29:29;;;;;;;7.53;4.15;;;20.40;68.70;;;;;;5025237;28;20021;-47
2023/09/26 09:31:59;;;;;;;6.85;3.80;;;20.40;69.00;;;;;;5017975;28;20044;-49
2023/09/26 09:34:30;;;;;;;6.30;4.25;;;20.40;66.40;;;;;;5035856;28;20061;-53
2023/09/26 09:36:56;;;;;;;7.65;4.05;;;20.30;66.00;;;;;;5055637;28;20044;-47
2023/09/26 09:39:24;;;;;;;8.88;3.63;;;20.30;65.70;;;;;;5055520;28;20033;-50
2023/09/26 09:42:04;;;;;;;5.40;3.65;;;20.40;66.70;;;;;;5074795;28;20039;-51
2023/09/26 09:44:33;;;;;;;6.07;4.20;;;20.60;67.30;;;;;;5059264;28;20028;-51
2023/09/26 09:47:02;;;;;;;8.60;3.92;;;20.70;67.10;;;;;;5075690;28;20056;-47
2023/09/26 09:49:32;;;;;;;6.10;3.42;;;21.00;69.00;;;;;;5067086;28;20032;-53
2023/09/26 09:52:08;;;;;;;6.68;4.20;;;21.20;65.50;;;;;;5074528;28;20075;-52
2023/09/26 09:54:37;;;;;;;7.20;5.10;;;21.10;64.30;;;;;;5074093;28;20052;-47
2023/09/26 09:57:10;;;;;;;5.67;4.30;;;20.80;64.20;;;;;;5058100;28;20457;-49
2023/09/26 09:59:39;;;;;;;6.82;4.75;;;20.20;64.80;;;;;;5054520;28;20063;-52
2023/09/26 10:02:10;;;;;;;6.85;4.20;;;19.80;66.50;;;;;;5055053;28;20457;-52
2023/09/26 10:04:40;;;;;;;7.53;5.90;;;19.50;67.90;;;;;;5055086;28;20163;-51
2023/09/26 10:07:09;;;;;;;7.78;5.53;;;19.40;68.80;;;;;;5037533;28;20051;-50
2023/09/26 10:09:39;;;;;;;8.48;5.13;;;19.50;69.40;;;;;;5055340;28;20032;-52
2023/09/26 10:12:10;;;;;;;6.47;4.38;;;19.70;69.30;;;;;;5075072;28;20039;-51
2023/09/26 10:14:41;;;;;;;7.20;4.75;;;19.90;69.30;;;;;;5052966;28;20037;-52
2023/09/26 10:17:07;;;;;;;7.68;5.13;;;20.00;68.00;;;;;;5054616;28;20024;-52
2023/09/26 10:19:36;;;;;;;7.75;4.25;;;20.10;68.70;;;;;;5063122;28;20127;-48
2023/09/26 10:22:20;;;;;;;6.70;4.65;;;20.20;67.90;;;;;;5074219;28;20774;-52
2023/09/26 10:24:54;;;;;;;6.55;4.45;;;20.30;67.50;;;;;;5075067;28;20032;-48
2023/09/26 10:27:38;;;;;;;7.57;4.10;;;20.20;67.20;;;;;;5039571;28;20392;-52
2023/09/26 10:30:06;;;;;;;5.75;4.10;;;20.00;68.10;;;;;;5074705;28;20110;-53
2023/09/26 10:32:41;;;;;;;5.93;4.80;;;19.90;68.20;;;;;;5056503;28;20040;-48
2023/09/26 10:35:16;;;;;;;6.55;3.97;;;19.90;68.90;;;;;;5057837;28;20423;-51
2023/09/26 10:37:52;;;;;;;5.40;3.97;;;19.90;70.30;;;;;;5074606;28;20040;-51
2023/09/26 10:40:20;;;;;;;5.78;3.95;;;20.00;70.30;;;;;;5057525;28;20678;-49
2023/09/26 10:43:02;;;;;;;6.63;4.40;;;20.20;70.20;;;;;;5059299;28;20032;-52
2023/09/26 10:45:30;;;;;;;8.70;5.90;;;20.20;68.20;;;;;;5053572;28;20071;-47
2023/09/26 10:47:56;;;;;;;10.82;5.18;;;20.20;67.80;;;;;;5054397;28;20028;-51
2023/09/26 10:50:24;;;;;;;8.15;4.95;;;20.40;68.70;;;;;;5054345;28;20569;-52
2023/09/26 10:52:51;;;;;;;6.90;4.70;;;20.40;67.80;;;;;;5054920;28;20044;-48
2023/09/26 10:55:21;;;;;;;6.45;5.13;;;20.50;69.20;;;;;;5074126;28;20045;-52
2023/09/26 10:57:53;;;;;;;8.07;4.75;;;20.60;69.30;;;;;;5073309;28;20075;-49
2023/09/26 11:00:22;;;;;;;10.55;4.43;;;20.70;68.70;;;;;;5073520;28;20354;-51
2023/09/26 11:02:50;;;;;;;6.15;4.50;;;20.60;68.50;;;;;;5066358;28;20033;-51
2023/09/26 11:05:17;;;;;;;11.45;5.15;;;20.60;68.10;;;;;;5073404;28;20322;-52
2023/09/26 11:07:46;;;;;;;6.63;5.00;;;20.60;67.90;;;;;;5073524;28;20061;-51
2023/09/26 11:10:15;;;;;;;6.45;4.80;;;20.60;68.70;;;;;;5054180;28;20039;-47
2023/09/26 11:12:41;;;;;;;6.15;3.80;;;20.60;69.00;;;;;;5035715;28;20041;-49
2023/09/26 11:15:11;;;;;;;7.20;4.07;;;20.50;69.80;;;;;;5073023;28;20179;-52
2023/09/26 11:17:38;;;;;;;5.88;4.25;;;20.60;71.00;;;;;;5072279;28;20032;-48
2023/09/26 11:20:11;;;;;;;8.18;5.25;;;20.60;70.40;;;;;;5072566;28;20093;-52
2023/09/26 11:22:52;;;;;;;6.25;5.25;;;20.70;70.50;;;;;;5062174;28;20037;-54
2023/09/26 11:25:19;;;;;;;11.63;4.47;;;20.90;70.10;;;;;;5073422;28;20029;-52
2023/09/26 11:27:46;;;;;;;5.30;4.47;;;20.90;68.90;;;;;;5073694;28;20021;-53
2023/09/26 11:30:18;;;;;;;5.32;3.95;;;20.90;69.00;;;;;;5034830;28;20385;-50
2023/09/26 11:32:54;;;;;;;5.75;3.70;;;21.10;69.30;;;;;;5052665;28;20039;-52
2023/09/26 11:35:34;;;;;;;7.75;4.25;;;21.00;69.30;;;;;;5056770;28;20086;-48
2023/09/26 11:37:59;;;;;;;6.38;3.70;;;21.10;69.00;;;;;;5060555;28;20024;-51
2023/09/26 11:40:28;;;;;;;5.50;4.47;;;21.10;68.10;;;;;;5047076;28;20045;-50
2023/09/26 11:43:03;;;;;;;6.90;4.30;;;21.30;67.50;;;;;;5034286;28;20052;-51
2023/09/26 11:45:31;;;;;;;4.57;2.72;;;21.20;66.70;;;;;;5050304;28;20040;-52
2023/09/26 11:48:01;;;;;;;6.40;3.88;;;21.40;67.30;;;;;;5053188;28;20028;-52
2023/09/26 11:50:27;;;;;;;5.80;4.30;;;21.50;65.90;;;;;;5053356;28;20017;-54
2023/09/26 11:53:00;;;;;;;5.10;4.13;;;21.50;66.90;;;;;;5031478;28;20038;-49
2023/09/26 11:55:27;;;;;;;7.78;4.40;;;21.60;66.90;;;;;;5012104;28;20068;-53
2023/09/26 11:57:54;;;;;;;6.45;4.15;;;21.50;67.00;;;;;;5052946;28;20082;-51
2023/09/26 12:00:26;;;;;;;7.03;3.88;;;21.50;67.40;;;;;;5040781;28;20047;-54
2023/09/26 12:02:54;;;;;;;6.20;3.22;;;21.50;66.10;;;;;;5033286;28;20030;-49
2023/09/26 12:05:22;;;;;;;12.55;4.55;;;21.40;67.30;;;;;;5040212;28;20029;-50
2023/09/26 12:07:51;;;;;;;6.38;3.45;;;21.30;65.80;;;;;;5053007;28;20021;-50
2023/09/26 12:10:22;;;;;;;4.57;3.78;;;21.30;67.20;;;;;;5038148;28;20044;-52
2023/09/26 12:12:47;;;;;;;5.90;3.95;;;21.20;66.00;;;;;;5015464;28;20029;-51
2023/09/26 12:15:21;;;;;;;5.38;4.82;;;21.30;67.80;;;;;;5016044;28;20356;-52
2023/09/26 12:17:53;;;;;;;7.75;3.90;;;21.30;68.20;;;;;;5015846;28;20029;-50
2023/09/26 12:20:21;;;;;;;6.10;4.30;;;21.40;69.00;;;;;;5024654;28;20454;-53
2023/09/26 12:22:55;;;;;;;7.47;5.07;;;21.30;66.60;;;;;;5015619;28;20243;-52
2023/09/26 12:25:24;;;;;;;6.38;4.30;;;21.40;67.00;;;;;;5020507;28;20037;-51
2023/09/26 12:27:54;;;;;;;6.05;4.75;;;21.40;66.00;;;;;;5016507;28;20030;-51
2023/09/26 12:30:21;;;;;;;5.82;4.43;;;21.40;67.20;;;;;;5043408;28;20496;-49
2023/09/26 12:32:50;;;;;;;5.57;3.95;;;21.40;67.90;;;;;;5045636;28;20496;-52
2023/09/26 12:35:17;;;;;;;8.45;4.82;;;21.40;68.40;;;;;;5029658;28;20110;-52
2023/09/26 12:37:44;;;;;;;6.95;5.55;;;21.40;67.30;;;;;;4999487;28;20083;-48
2023/09/26 12:40:13;;;;;;;6.18;4.13;;;21.30;66.80;;;;;;5036398;28;20136;-51
2023/09/26 12:42:41;;;;;;;6.40;3.93;;;21.30;67.30;;;;;;5052092;28;20033;-55
2023/09/26 12:45:09;;;;;;;4.60;3.65;;;21.30;68.70;;;;;;5037164;28;20017;-51
2023/09/26 12:47:42;;;;;;;6.28;3.05;;;21.20;68.20;;;;;;5062657;28;20333;-54